createdAt,value
2019-04-26T00:00:18.074Z,99342.55
2019-04-26T00:04:26.851Z,99345.89
2019-04-26T00:08:33.664Z,99352.30
2019-04-26T00:12:51.098Z,99379.58
2019-04-26T00:17:01.799Z,99384.66
2019-04-26T00:21:09.813Z,99379.84
2019-04-26T00:25:18.623Z,99383.42
2019-04-26T00:29:25.400Z,99366.91
2019-04-26T00:33:32.248Z,99377.03
2019-04-26T00:37:38.946Z,99388.64
2019-04-26T00:41:46.149Z,99418.27
2019-04-26T00:45:56.375Z,99418.50
2019-04-26T00:50:04.225Z,99400.98
2019-04-26T00:54:11.691Z,99369.57
2019-04-26T00:58:18.797Z,99388.02
2019-04-26T01:02:39.698Z,99419.77
2019-04-26T01:06:48.038Z,99411.27
2019-04-26T01:10:54.742Z,99426.70
2019-04-26T01:15:01.446Z,99433.28
2019-04-26T01:19:12.258Z,99431.97
2019-04-26T01:23:22.998Z,99423.28
2019-04-26T01:27:32.388Z,99412.86
2019-04-26T01:32:07.989Z,99416.77
2019-04-26T01:36:16.720Z,99426.31
2019-04-26T01:40:26.066Z,99420.78
2019-04-26T01:44:48.254Z,99423.11
2019-04-26T01:49:02.779Z,99416.56
2019-04-26T01:53:09.627Z,99420.41
2019-04-26T01:57:17.002Z,99409.42
2019-04-26T02:01:51.400Z,99413.42
2019-04-26T02:05:58.317Z,99420.77
2019-04-26T02:10:06.207Z,99426.60
2019-04-26T02:14:13.131Z,99436.25
2019-04-26T02:18:19.936Z,99431.91
2019-04-26T02:22:36.321Z,99432.65
2019-04-26T02:26:45.516Z,99445.24
2019-04-26T02:30:52.878Z,99474.27
2019-04-26T02:35:00.061Z,99474.30
2019-04-26T02:39:24.255Z,99469.19
2019-04-26T02:43:32.090Z,99483.41
2019-04-26T02:47:47.261Z,99483.72
2019-04-26T02:52:33.329Z,99498.00
2019-04-26T02:56:43.304Z,99485.06
2019-04-26T03:00:51.362Z,99499.58
2019-04-26T03:05:07.531Z,99492.54
2019-04-26T03:09:17.294Z,99488.62
2019-04-26T03:13:47.905Z,99487.77
2019-04-26T03:18:19.299Z,99494.11
2019-04-26T03:23:07.949Z,99486.25
2019-04-26T03:27:43.433Z,99493.06
2019-04-26T03:32:36.254Z,99497.62
2019-04-26T03:37:22.959Z,99479.52
2019-04-26T03:42:30.769Z,99476.72
2019-04-26T03:46:57.033Z,99474.01
2019-04-26T03:51:17.746Z,99468.36
2019-04-26T03:57:03.151Z,99474.58
2019-04-26T04:01:12.287Z,99482.25
2019-04-26T04:05:37.273Z,99481.29
2019-04-26T04:09:49.511Z,99483.02
2019-04-26T04:14:05.056Z,99490.64
2019-04-26T04:18:20.879Z,99492.44
2019-04-26T04:22:32.623Z,99508.05
2019-04-26T04:27:11.586Z,99504.73
2019-04-26T04:31:29.457Z,99509.09
2019-04-26T04:35:45.664Z,99511.81
2019-04-26T04:40:37.155Z,99515.27
2019-04-26T04:45:58.211Z,99510.79
2019-04-26T04:50:44.936Z,99508.77
2019-04-26T04:55:07.735Z,99522.19
2019-04-26T04:59:24.060Z,99522.98
2019-04-26T05:03:53.191Z,99525.33
2019-04-26T05:08:25.197Z,99524.98
2019-04-26T05:13:03.452Z,99528.30
2019-04-26T05:17:41.787Z,99538.30
2019-04-26T05:22:37.472Z,99547.61
2019-04-26T05:28:15.527Z,99549.69
2019-04-26T05:33:07.087Z,99556.55
2019-04-26T05:38:17.942Z,99564.66
2019-04-26T05:43:03.344Z,99558.95
2019-04-26T05:48:11.562Z,99565.72
2019-04-26T05:53:23.629Z,99575.73
2019-04-26T05:58:05.517Z,99564.55
2019-04-26T06:02:56.806Z,99584.19
2019-04-26T06:07:37.142Z,99587.92
2019-04-26T06:12:01.963Z,99600.91
2019-04-26T06:17:33.660Z,99614.83
2019-04-26T06:22:16.196Z,99625.57
2019-04-26T06:27:13.616Z,99651.98
2019-04-26T06:31:22.963Z,99651.36
2019-04-26T06:35:34.800Z,99659.03
2019-04-26T06:40:02.208Z,99653.52
2019-04-26T06:44:17.075Z,99649.31
2019-04-26T06:49:49.603Z,99650.27
2019-04-26T06:54:19.771Z,99648.00
2019-04-26T06:59:35.705Z,99632.88
2019-04-26T07:04:21.539Z,99638.02
2019-04-26T07:08:57.687Z,99650.03
2019-04-26T07:13:48.445Z,99654.45
2019-04-26T07:19:06.581Z,99661.41
2019-04-26T07:24:29.770Z,99669.25
2019-04-26T07:29:29.480Z,99685.05
2019-04-26T07:34:09.539Z,99699.86
2019-04-26T07:39:20.323Z,99703.78
2019-04-26T07:44:23.090Z,99712.85
2019-04-26T07:49:13.213Z,99710.53
2019-04-26T07:54:05.099Z,99719.84
2019-04-26T07:59:18.403Z,99728.24
2019-04-26T08:03:38.464Z,99731.63
2019-04-26T08:07:52.818Z,99725.14
2019-04-26T08:12:07.959Z,99738.81
2019-04-26T08:16:48.556Z,99732.55
2019-04-26T08:21:09.941Z,99725.24
2019-04-26T08:25:17.687Z,99721.16
2019-04-26T08:29:29.845Z,99732.46
2019-04-26T08:33:48.558Z,99738.80
2019-04-26T08:37:57.454Z,99737.70
2019-04-26T08:42:12.120Z,99743.25
2019-04-26T08:46:38.566Z,99764.11
2019-04-26T08:50:48.300Z,99787.98
2019-04-26T08:54:58.205Z,99781.73
2019-04-26T08:59:17.805Z,99780.87
2019-04-26T09:03:56.008Z,99778.34
2019-04-26T09:08:06.515Z,99783.99
2019-04-26T09:12:23.168Z,99784.08
2019-04-26T09:16:27.428Z,99785.72
2019-04-26T09:20:34.179Z,99802.53
2019-04-26T09:24:55.110Z,99812.97
2019-04-26T09:29:07.593Z,99808.80
2019-04-26T09:33:18.260Z,99809.44
2019-04-26T09:37:25.601Z,99823.02
2019-04-26T09:41:32.341Z,99820.95
2019-04-26T09:46:04.253Z,99815.78
2019-04-26T09:50:28.441Z,99805.38
2019-04-26T09:54:35.199Z,99812.75
2019-04-26T09:58:41.885Z,99810.78
2019-04-26T10:02:48.754Z,99815.27
2019-04-26T10:06:55.652Z,99815.41
2019-04-26T10:11:05.774Z,99815.63
2019-04-26T10:15:22.481Z,99805.19
2019-04-26T10:19:33.997Z,99798.89
2019-04-26T10:23:40.938Z,99816.95
2019-04-26T10:27:47.977Z,99821.29
2019-04-26T10:31:54.813Z,99833.36
2019-04-26T10:36:01.484Z,99839.14
2019-04-26T10:40:08.670Z,99842.81
2019-04-26T10:44:15.664Z,99847.97
2019-04-26T10:48:23.297Z,99851.91
2019-04-26T10:52:58.097Z,99848.23
2019-04-26T10:57:11.687Z,99846.91
2019-04-26T11:01:19.463Z,99836.91
2019-04-26T11:05:26.195Z,99834.84
2019-04-26T11:09:32.945Z,99835.33
2019-04-26T11:13:39.663Z,99830.38
2019-04-26T11:17:50.024Z,99824.39
2019-04-26T11:21:56.089Z,99827.46
2019-04-26T11:26:02.977Z,99835.03
2019-04-26T11:30:14.323Z,99831.68
2019-04-26T11:38:31.172Z,99822.72
2019-04-26T11:40:14.006Z,99835.13
2019-04-26T11:42:36.166Z,99832.77
2019-04-26T11:46:44.926Z,99825.78
2019-04-26T11:50:52.000Z,99829.01
2019-04-26T11:54:59.662Z,99831.91
2019-04-26T11:59:06.431Z,99833.55
2019-04-26T12:03:13.197Z,99835.94
2019-04-26T12:07:23.517Z,99846.94
2019-04-26T12:11:35.007Z,99850.86
2019-04-26T12:15:39.016Z,99849.83
2019-04-26T12:19:48.143Z,99854.23
2019-04-26T12:23:56.411Z,99867.10
2019-04-26T12:28:06.103Z,99865.38
2019-04-26T12:32:11.831Z,99866.06
2019-04-26T12:36:19.372Z,99867.42
2019-04-26T12:40:26.123Z,99865.86
2019-04-26T12:44:41.224Z,99866.89
2019-04-26T12:48:49.992Z,99871.28
2019-04-26T12:52:57.373Z,99882.95
2019-04-26T12:57:05.815Z,99884.91
2019-04-26T13:01:14.358Z,99873.59
2019-04-26T13:05:21.348Z,99886.76
2019-04-26T13:09:28.432Z,99877.11
2019-04-26T13:13:42.283Z,99875.66
2019-04-26T13:17:56.910Z,99886.12
2019-04-26T13:22:03.694Z,99889.19
2019-04-26T13:26:10.428Z,99886.19
2019-04-26T13:30:17.184Z,99893.25
2019-04-26T13:34:23.874Z,99886.61
2019-04-26T13:38:30.653Z,99881.34
2019-04-26T13:42:37.438Z,99888.60
2019-04-26T13:47:08.112Z,99887.91
2019-04-26T13:51:15.606Z,99887.52
2019-04-26T13:55:25.402Z,99881.86
2019-04-26T13:59:31.694Z,99887.14
2019-04-26T14:03:39.371Z,99884.80
2019-04-26T14:07:46.095Z,99899.78
2019-04-26T14:11:53.805Z,99890.16
2019-04-26T14:16:00.686Z,99889.04
2019-04-26T14:20:07.644Z,99889.27
2019-04-26T14:24:25.199Z,99881.52
2019-04-26T14:28:31.890Z,99880.67
2019-04-26T14:32:38.586Z,99882.64
2019-04-26T14:36:45.244Z,99892.52
2019-04-26T14:41:03.687Z,99886.87
2019-04-26T14:45:06.118Z,99897.64
2019-04-26T14:49:10.875Z,99894.83
2019-04-26T14:53:17.609Z,99896.50
2019-04-26T14:57:31.309Z,99907.70
2019-04-26T15:02:06.359Z,99912.16
2019-04-26T15:06:16.857Z,99903.80
2019-04-26T15:10:43.153Z,99896.63
2019-04-26T15:14:38.802Z,99901.51
2019-04-26T15:18:45.647Z,99906.66
2019-04-26T15:22:52.918Z,99907.89
2019-04-26T15:27:01.811Z,99912.58
2019-04-26T15:31:08.208Z,99912.32
2019-04-26T15:35:17.657Z,99912.06
2019-04-26T15:39:39.576Z,99917.37
2019-04-26T15:43:59.455Z,99902.67
2019-04-26T15:48:37.159Z,99901.33
2019-04-26T15:52:43.973Z,99901.33
2019-04-26T15:56:53.800Z,99905.97
2019-04-26T16:00:59.382Z,99899.56
2019-04-26T16:05:06.321Z,99903.40
2019-04-26T16:09:19.883Z,99906.03
2019-04-26T16:13:24.180Z,99909.96
2019-04-26T16:17:31.024Z,99918.59
2019-04-26T16:21:37.732Z,99928.38
2019-04-26T16:25:44.456Z,99927.64
2019-04-26T16:29:59.633Z,99920.08
2019-04-26T16:34:10.834Z,99913.94
2019-04-26T16:38:36.137Z,99921.93
2019-04-26T16:42:42.816Z,99916.23
2019-04-26T16:46:54.031Z,99917.56
2019-04-26T16:51:00.944Z,99911.71
2019-04-26T16:55:15.293Z,99907.81
2019-04-26T16:59:22.378Z,99910.75
2019-04-26T17:03:26.259Z,99919.43
2019-04-26T17:07:39.034Z,99922.91
2019-04-26T17:11:43.377Z,99932.95
2019-04-26T17:15:51.976Z,99941.89
2019-04-26T17:19:59.264Z,99942.50
2019-04-26T17:24:43.813Z,99948.92
2019-04-26T17:28:48.554Z,99947.66
2019-04-26T17:32:56.344Z,99950.63
2019-04-26T17:37:11.703Z,99944.72
2019-04-26T17:41:13.840Z,99945.38
2019-04-26T17:45:21.281Z,99935.14
2019-04-26T17:49:28.976Z,99929.10
2019-04-26T17:53:36.908Z,99929.16
2019-04-26T17:57:48.525Z,99933.11
2019-04-26T18:02:00.557Z,99929.01
2019-04-26T18:06:01.051Z,99939.63
2019-04-26T18:10:10.390Z,99941.09
2019-04-26T18:14:21.532Z,99942.34
2019-04-26T18:18:46.241Z,99937.86
2019-04-26T18:22:57.250Z,99958.00
2019-04-26T18:27:04.379Z,99960.59
2019-04-26T18:31:16.429Z,99964.94
2019-04-26T18:35:23.411Z,99981.18
2019-04-26T18:39:30.396Z,99983.53
2019-04-26T18:43:37.115Z,99976.27
2019-04-26T18:47:45.328Z,99986.19
2019-04-26T18:51:54.663Z,99988.40
2019-04-26T18:56:03.385Z,99992.05
2019-04-26T19:00:15.453Z,99994.80
2019-04-26T19:04:23.603Z,99994.80
2019-04-26T19:08:43.639Z,100003.86
2019-04-26T19:12:41.196Z,100006.73
2019-04-26T19:17:07.716Z,100007.52
2019-04-26T19:21:21.902Z,100000.69
2019-04-26T19:25:33.290Z,100006.31
2019-04-26T19:29:38.459Z,100010.92
2019-04-26T19:33:47.678Z,100011.84
2019-04-26T19:37:53.621Z,100007.73
2019-04-26T19:42:02.368Z,100006.92
2019-04-26T19:46:25.210Z,100009.36
2019-04-26T19:50:53.642Z,100018.06
2019-04-26T19:55:20.078Z,100020.03
2019-04-26T19:59:27.505Z,100010.67
2019-04-26T20:03:35.409Z,100018.19
2019-04-26T20:07:42.128Z,100021.86
2019-04-26T20:11:52.929Z,100030.45
2019-04-26T20:16:02.726Z,100040.27
2019-04-26T20:20:19.366Z,100030.87
2019-04-26T20:24:19.722Z,100031.28
2019-04-26T20:28:29.686Z,100032.58
2019-04-26T20:32:37.403Z,100032.11
2019-04-26T20:36:52.569Z,100033.86
2019-04-26T20:42:05.077Z,100035.17
2019-04-26T20:46:16.051Z,100037.09
2019-04-26T20:50:28.501Z,100037.63
2019-04-26T20:54:34.118Z,100030.37
2019-04-26T20:58:47.091Z,100023.25
2019-04-26T21:03:01.513Z,100025.07
2019-04-26T21:07:06.756Z,100021.79
2019-04-26T21:11:13.712Z,100028.85
2019-04-26T21:15:24.017Z,100015.33
2019-04-26T21:19:32.746Z,99998.53
2019-04-26T21:23:39.956Z,99995.15
2019-04-26T21:35:20.375Z,99995.43
2019-04-26T21:39:44.161Z,99994.02
2019-04-26T21:43:50.903Z,99993.50
2019-04-26T21:47:57.755Z,100008.22
2019-04-26T21:52:06.455Z,100006.00
2019-04-26T21:56:18.768Z,100020.77
2019-04-26T22:00:49.714Z,100016.59
2019-04-26T22:04:58.139Z,100027.72
2019-04-26T22:09:21.126Z,100022.72
2019-04-26T22:13:37.236Z,100022.73
2019-04-26T22:17:48.114Z,100030.28
2019-04-26T22:22:04.269Z,100020.19
2019-04-26T22:26:13.316Z,100028.22
2019-04-26T22:30:28.502Z,100031.41
2019-04-26T22:34:37.284Z,100028.36
2019-04-26T22:38:44.423Z,100034.77
2019-04-26T22:42:54.668Z,100031.91
2019-04-26T22:47:14.035Z,100040.09
2019-04-26T22:51:20.979Z,100039.78
2019-04-26T22:55:27.771Z,100037.64
2019-04-26T22:59:38.093Z,100040.80
2019-04-26T23:03:46.312Z,100033.73
2019-04-26T23:07:54.685Z,100038.54
2019-04-26T23:12:11.698Z,100044.88
2019-04-26T23:16:27.337Z,100045.38
2019-04-26T23:20:43.083Z,100047.03
2019-04-26T23:24:56.656Z,100051.11
2019-04-26T23:29:01.194Z,100049.38
2019-04-26T23:33:07.929Z,100050.80
2019-04-26T23:37:14.632Z,100048.44
2019-04-26T23:41:23.440Z,100044.07
2019-04-26T23:45:29.980Z,100042.44
2019-04-26T23:49:36.715Z,100034.68
2019-04-26T23:53:43.371Z,100037.23
2019-04-26T23:57:50.149Z,100029.88
